createdAt,value
2017-04-23T00:00:27.124Z,0
2017-04-23T00:01:12.212Z,0
2017-04-23T00:01:53.562Z,0
2017-04-23T00:02:41.573Z,0
2017-04-23T00:03:26.845Z,0
2017-04-23T00:04:07.235Z,0
2017-04-23T00:04:52.051Z,0
2017-04-23T00:05:37.264Z,0
2017-04-23T00:06:17.658Z,0
2017-04-23T00:06:58.096Z,0
2017-04-23T00:07:40.353Z,0
2017-04-23T00:08:20.713Z,0
2017-04-23T00:09:01.063Z,0
2017-04-23T00:09:43.315Z,0
2017-04-23T00:10:28.599Z,0
2017-04-23T00:11:09.965Z,0
2017-04-23T00:11:54.693Z,0
2017-04-23T00:12:36.115Z,0
2017-04-23T00:13:22.096Z,0
2017-04-23T00:14:08.082Z,0
2017-04-23T00:14:51.184Z,0
2017-04-23T00:15:33.313Z,0
2017-04-23T00:16:14.632Z,0
2017-04-23T00:17:05.682Z,0
2017-04-23T00:17:50.851Z,0
2017-04-23T00:18:32.963Z,0
2017-04-23T00:19:20.076Z,0
2017-04-23T00:20:03.062Z,0
2017-04-23T00:22:26.960Z,0
2017-04-23T00:23:15.787Z,0
2017-04-23T00:24:04.757Z,0
2017-04-23T00:24:53.247Z,0
2017-04-23T00:25:41.757Z,0
2017-04-23T00:26:30.312Z,0
2017-04-23T00:27:19.206Z,0
2017-04-23T00:28:07.515Z,0
2017-04-23T00:28:56.349Z,0
2017-04-23T00:29:44.887Z,0
2017-04-23T00:30:33.297Z,0
2017-04-23T00:31:21.917Z,0
2017-04-23T00:32:10.501Z,0
2017-04-23T00:32:59.371Z,0
2017-04-23T00:35:21.497Z,0
2017-04-23T00:36:10.015Z,0
2017-04-23T00:36:58.865Z,0
2017-04-23T00:37:47.377Z,0
2017-04-23T00:38:36.452Z,0
2017-04-23T00:39:24.964Z,0
2017-04-23T00:40:13.924Z,0
2017-04-23T00:41:02.552Z,0
2017-04-23T00:41:51.126Z,0
2017-04-23T00:42:39.369Z,0
2017-04-23T00:43:28.373Z,0
2017-04-23T00:44:17.138Z,0
2017-04-23T00:45:05.105Z,0
2017-04-23T00:45:54.076Z,0
2017-04-23T00:46:42.422Z,0
2017-04-23T00:47:31.356Z,0
2017-04-23T00:48:19.350Z,0
2017-04-23T00:49:08.134Z,0
2017-04-23T00:49:56.997Z,0
2017-04-23T00:50:45.563Z,0
2017-04-23T00:51:34.047Z,0
2017-04-23T00:52:22.643Z,0
2017-04-23T00:53:11.446Z,0
2017-04-23T00:54:00.289Z,0
2017-04-23T00:54:48.747Z,0
2017-04-23T00:55:37.333Z,0
2017-04-23T00:56:25.973Z,0
2017-04-23T00:57:14.083Z,0
2017-04-23T00:58:02.610Z,0
2017-04-23T00:58:51.893Z,0
2017-04-23T00:59:39.983Z,0
2017-04-23T01:00:29.131Z,0
2017-04-23T01:01:17.626Z,0
2017-04-23T01:02:06.455Z,0
2017-04-23T01:02:55.089Z,0
2017-04-23T01:03:43.807Z,0
2017-04-23T01:04:31.934Z,0
2017-04-23T01:05:20.607Z,0
2017-04-23T01:06:09.382Z,0
2017-04-23T01:06:58.301Z,0
2017-04-23T01:07:46.581Z,0
2017-04-23T01:08:35.075Z,0
2017-04-23T01:09:23.622Z,0
2017-04-23T01:10:12.414Z,0
2017-04-23T01:11:02.360Z,0
2017-04-23T01:11:51.208Z,0
2017-04-23T01:12:39.977Z,0
2017-04-23T01:13:28.925Z,0
2017-04-23T01:14:17.178Z,0
2017-04-23T01:15:05.612Z,0
2017-04-23T01:15:54.067Z,0
2017-04-23T01:16:42.647Z,0
2017-04-23T01:17:31.427Z,0
2017-04-23T01:18:20.433Z,0
2017-04-23T01:19:08.799Z,0
2017-04-23T01:19:57.769Z,0
2017-04-23T01:20:46.171Z,0
2017-04-23T01:21:34.857Z,0
2017-04-23T01:22:22.900Z,0
2017-04-23T01:23:10.413Z,0
2017-04-23T01:23:59.346Z,0
2017-04-23T01:24:47.508Z,0
2017-04-23T01:25:36.045Z,0
2017-04-23T01:26:25.407Z,0
2017-04-23T01:27:13.560Z,0
2017-04-23T01:28:01.942Z,0
2017-04-23T01:28:50.723Z,0
2017-04-23T01:29:39.512Z,0
2017-04-23T01:30:28.281Z,0
2017-04-23T01:31:16.932Z,0
2017-04-23T01:32:05.551Z,0
2017-04-23T01:32:54.162Z,0
2017-04-23T01:33:42.450Z,0
2017-04-23T01:34:30.959Z,0
2017-04-23T01:35:19.516Z,0
2017-04-23T01:36:08.445Z,0
2017-04-23T01:36:57.450Z,0
2017-04-23T01:37:45.877Z,0
2017-04-23T01:38:34.102Z,0
2017-04-23T01:39:22.980Z,0
2017-04-23T01:40:11.481Z,0
2017-04-23T01:41:00.058Z,0
2017-04-23T01:41:49.072Z,0
2017-04-23T01:42:38.413Z,0
2017-04-23T01:43:26.705Z,0
2017-04-23T01:44:15.568Z,0
2017-04-23T01:45:04.404Z,0
2017-04-23T01:45:53.199Z,0
2017-04-23T01:46:41.724Z,0
2017-04-23T01:47:30.465Z,0
2017-04-23T01:48:19.317Z,0
2017-04-23T01:49:08.042Z,0
2017-04-23T01:49:56.183Z,0
2017-04-23T01:50:44.930Z,0
2017-04-23T01:51:33.295Z,0
2017-04-23T01:52:22.288Z,0
2017-04-23T01:53:10.821Z,0
2017-04-23T01:53:59.214Z,0
2017-04-23T01:54:47.780Z,0
2017-04-23T01:55:36.477Z,0
2017-04-23T01:56:25.406Z,0
2017-04-23T01:57:13.386Z,0
2017-04-23T01:57:54.102Z,0
2017-04-23T01:58:35.968Z,0
2017-04-23T01:59:16.331Z,0
2017-04-23T01:59:57.630Z,0
2017-04-23T02:00:38.037Z,0
2017-04-23T02:01:18.443Z,0
2017-04-23T02:01:58.879Z,0
2017-04-23T02:02:39.280Z,0
2017-04-23T02:03:19.681Z,0
2017-04-23T02:04:00.081Z,0
2017-04-23T02:04:41.707Z,0
2017-04-23T02:08:52.714Z,0
2017-04-23T02:09:40.220Z,0
2017-04-23T02:10:28.695Z,0
2017-04-23T02:11:17.599Z,0
2017-04-23T02:12:06.309Z,0
2017-04-23T02:12:54.658Z,0
2017-04-23T02:13:43.577Z,0
2017-04-23T02:14:32.370Z,0
2017-04-23T02:15:21.006Z,0
2017-04-23T02:16:09.783Z,0
2017-04-23T02:16:58.456Z,0
2017-04-23T02:17:46.737Z,0
2017-04-23T02:18:27.705Z,0
2017-04-23T02:19:08.158Z,0
2017-04-23T02:19:49.894Z,0
2017-04-23T02:20:30.393Z,0
2017-04-23T02:21:12.419Z,0
2017-04-23T02:21:53.574Z,0
2017-04-23T02:22:33.930Z,0
2017-04-23T02:23:16.330Z,0
2017-04-23T02:23:57.796Z,0
2017-04-23T02:24:39.844Z,0
2017-04-23T02:25:21.197Z,0
2017-04-23T02:26:01.568Z,0
2017-04-23T02:26:41.929Z,0
2017-04-23T02:27:22.386Z,0
2017-04-23T02:28:04.501Z,0
2017-04-23T02:28:49.667Z,0
2017-04-23T02:29:30.949Z,0
2017-04-23T02:30:12.864Z,0
2017-04-23T02:30:55.053Z,0
2017-04-23T02:31:38.007Z,0
2017-04-23T02:32:18.399Z,0
2017-04-23T02:32:58.782Z,0
2017-04-23T02:33:39.235Z,0
2017-04-23T02:34:19.638Z,0
2017-04-23T02:35:00.872Z,0
2017-04-23T02:35:41.964Z,0
2017-04-23T02:36:22.354Z,0
2017-04-23T02:37:02.760Z,0
2017-04-23T02:37:43.203Z,0
2017-04-23T02:38:24.092Z,0
2017-04-23T02:39:05.333Z,0
2017-04-23T02:39:45.750Z,0
2017-04-23T02:40:27.063Z,0
2017-04-23T02:41:12.348Z,0
2017-04-23T02:41:52.809Z,0
2017-04-23T02:42:33.205Z,0
2017-04-23T02:43:13.619Z,0
2017-04-23T02:43:54.053Z,0
2017-04-23T02:44:35.170Z,0
2017-04-23T02:45:15.596Z,0
2017-04-23T02:45:57.928Z,0
2017-04-23T02:46:39.883Z,0
2017-04-23T02:47:20.969Z,0
2017-04-23T02:48:03.938Z,0
2017-04-23T02:48:45.016Z,0
2017-04-23T02:49:26.007Z,0
2017-04-23T02:50:06.526Z,0
2017-04-23T02:50:51.440Z,0
2017-04-23T02:51:32.435Z,0
2017-04-23T02:52:13.511Z,0
2017-04-23T02:52:54.001Z,0
2017-04-23T02:55:14.360Z,0
2017-04-23T02:55:56.493Z,0
2017-04-23T02:56:36.930Z,0
2017-04-23T02:57:17.274Z,0
2017-04-23T02:57:57.756Z,0
2017-04-23T02:58:38.213Z,0
2017-04-23T02:59:19.418Z,0
2017-04-23T03:00:00.637Z,0
2017-04-23T03:00:41.933Z,0
2017-04-23T03:01:23.211Z,0
2017-04-23T03:02:05.364Z,0
2017-04-23T03:02:47.187Z,0
2017-04-23T03:03:28.183Z,0
2017-04-23T03:04:08.573Z,0
2017-04-23T03:04:48.994Z,0
2017-04-23T03:05:29.426Z,0
2017-04-23T03:06:09.857Z,0
2017-04-23T03:06:50.235Z,0
2017-04-23T03:07:31.377Z,0
2017-04-23T03:08:12.704Z,0
2017-04-23T03:08:53.948Z,0
2017-04-23T03:09:34.342Z,0
2017-04-23T03:10:14.718Z,0
2017-04-23T03:10:55.807Z,0
2017-04-23T03:11:37.125Z,0
2017-04-23T03:12:18.328Z,0
2017-04-23T03:12:58.693Z,0
2017-04-23T03:13:39.127Z,0
2017-04-23T03:14:19.511Z,0
2017-04-23T03:15:00.829Z,0
2017-04-23T03:15:41.211Z,0
2017-04-23T03:16:25.099Z,0
2017-04-23T03:17:05.457Z,0
2017-04-23T03:17:46.713Z,0
2017-04-23T03:18:27.742Z,0
2017-04-23T03:19:08.154Z,0
2017-04-23T03:19:49.577Z,0
2017-04-23T03:20:30.880Z,0
2017-04-23T03:21:11.819Z,0
2017-04-23T03:21:52.242Z,0
2017-04-23T03:22:32.592Z,0
2017-04-23T03:23:13.900Z,0
2017-04-23T03:23:54.305Z,0
2017-04-23T03:24:36.296Z,0
2017-04-23T03:25:16.683Z,0
2017-04-23T03:25:57.658Z,0
2017-04-23T03:26:38.784Z,0
2017-04-23T03:27:19.210Z,0
2017-04-23T03:27:59.594Z,0
2017-04-23T03:28:40.006Z,0
2017-04-23T03:29:20.443Z,0
2017-04-23T03:30:03.094Z,0
2017-04-23T03:30:44.278Z,0
2017-04-23T03:31:24.759Z,0
2017-04-23T03:32:05.152Z,0
2017-04-23T03:32:45.556Z,0
2017-04-23T03:33:26.870Z,0
2017-04-23T03:34:07.302Z,0
2017-04-23T03:34:47.661Z,0
2017-04-23T03:35:28.147Z,0
2017-04-23T03:36:08.538Z,0
2017-04-23T03:36:48.910Z,0
2017-04-23T03:37:29.423Z,0
2017-04-23T03:38:09.838Z,0
2017-04-23T03:38:50.227Z,0
2017-04-23T03:39:30.586Z,0
2017-04-23T03:40:12.887Z,0
2017-04-23T03:40:53.286Z,0
2017-04-23T03:41:33.689Z,0
2017-04-23T03:42:14.132Z,0
2017-04-23T03:42:54.472Z,0
2017-04-23T03:43:34.911Z,0
2017-04-23T03:44:15.324Z,0
2017-04-23T03:44:55.705Z,0
2017-04-23T03:45:36.125Z,0
2017-04-23T03:46:16.546Z,0
2017-04-23T03:46:57.803Z,0
2017-04-23T03:47:38.273Z,0
2017-04-23T03:48:19.361Z,0
2017-04-23T03:49:00.351Z,0
2017-04-23T03:49:40.754Z,0
2017-04-23T03:50:21.659Z,0
2017-04-23T03:51:02.084Z,0
2017-04-23T03:51:42.490Z,0
2017-04-23T03:52:22.912Z,0
2017-04-23T03:53:03.391Z,0
2017-04-23T03:53:43.819Z,0
2017-04-23T03:54:24.244Z,0
2017-04-23T03:55:05.625Z,0
2017-04-23T03:55:46.016Z,0
2017-04-23T03:56:27.332Z,0
2017-04-23T03:57:07.704Z,0
2017-04-23T03:57:48.135Z,0
2017-04-23T03:58:29.231Z,0
2017-04-23T03:59:09.592Z,0
2017-04-23T03:59:50.756Z,0
2017-04-23T04:00:31.241Z,0
2017-04-23T04:01:11.649Z,0
2017-04-23T04:01:52.212Z,0
2017-04-23T04:02:32.636Z,0
2017-04-23T04:03:13.593Z,0
2017-04-23T04:03:57.588Z,0
2017-04-23T04:04:38.887Z,0
2017-04-23T04:05:19.296Z,0
2017-04-23T04:06:00.458Z,0
2017-04-23T04:06:42.218Z,0
2017-04-23T04:07:22.589Z,5
2017-04-23T04:08:03.663Z,5
2017-04-23T04:08:44.076Z,5
2017-04-23T04:09:26.097Z,5
2017-04-23T04:10:07.353Z,5
2017-04-23T04:10:47.769Z,5
2017-04-23T04:11:28.144Z,5
2017-04-23T04:12:09.417Z,5
2017-04-23T04:12:50.766Z,5
2017-04-23T04:13:31.132Z,5
2017-04-23T04:14:12.282Z,5
2017-04-23T04:14:52.695Z,10
2017-04-23T04:15:33.028Z,10
2017-04-23T04:16:15.383Z,10
2017-04-23T04:16:55.868Z,10
2017-04-23T04:17:36.237Z,10
2017-04-23T04:18:16.648Z,10
2017-04-23T04:18:57.047Z,10
2017-04-23T04:19:37.424Z,15
2017-04-23T04:20:17.807Z,15
2017-04-23T04:20:58.919Z,15
2017-04-23T04:21:39.361Z,15
2017-04-23T04:22:19.705Z,15
2017-04-23T04:23:01.104Z,20
2017-04-23T04:23:41.588Z,20
2017-04-23T04:24:21.973Z,20
2017-04-23T04:25:02.336Z,20
2017-04-23T04:25:42.766Z,20
2017-04-23T04:26:23.127Z,25
2017-04-23T04:27:03.571Z,25
2017-04-23T04:27:43.964Z,25
2017-04-23T04:28:24.365Z,25
2017-04-23T04:29:05.443Z,25
2017-04-23T04:29:45.846Z,30
2017-04-23T04:30:26.257Z,30
2017-04-23T04:31:06.661Z,30
2017-04-23T04:31:47.172Z,30
2017-04-23T04:32:27.652Z,30
2017-04-23T04:33:08.014Z,35
2017-04-23T04:33:48.394Z,35
2017-04-23T04:34:28.787Z,35
2017-04-23T04:35:09.234Z,35
2017-04-23T04:35:49.644Z,35
2017-04-23T04:36:30.054Z,35
2017-04-23T04:37:10.405Z,40
2017-04-23T04:37:51.713Z,40
2017-04-23T04:38:32.176Z,40
2017-04-23T04:39:12.574Z,40
2017-04-23T04:39:52.903Z,40
2017-04-23T04:40:33.327Z,45
2017-04-23T04:41:13.748Z,45
2017-04-23T04:41:54.137Z,45
2017-04-23T04:42:34.583Z,50
2017-04-23T04:43:15.606Z,50
2017-04-23T04:43:56.017Z,50
2017-04-23T04:44:36.488Z,50
2017-04-23T04:45:16.892Z,55
2017-04-23T04:45:57.281Z,55
2017-04-23T04:46:37.669Z,55
2017-04-23T04:47:18.065Z,55
2017-04-23T04:47:58.482Z,60
2017-04-23T04:48:38.875Z,60
2017-04-23T04:49:19.311Z,60
2017-04-23T04:49:59.700Z,60
2017-04-23T04:50:41.097Z,65
2017-04-23T04:51:21.500Z,65
2017-04-23T04:52:01.933Z,65
2017-04-23T04:54:39.966Z,70
2017-04-23T04:55:28.671Z,75
2017-04-23T04:56:17.418Z,75
2017-04-23T04:57:06.015Z,75
2017-04-23T04:57:54.430Z,80
2017-04-23T04:58:42.829Z,80
2017-04-23T04:59:31.523Z,80
2017-04-23T05:00:20.047Z,85
2017-04-23T05:01:10.344Z,85
2017-04-23T05:01:58.868Z,85
2017-04-23T05:02:47.311Z,90
2017-04-23T05:03:36.257Z,90
2017-04-23T05:04:25.396Z,90
2017-04-23T05:05:13.901Z,95
2017-04-23T05:06:02.026Z,95
2017-04-23T05:06:50.849Z,95
2017-04-23T05:07:39.061Z,100
2017-04-23T05:08:27.670Z,100
2017-04-23T05:09:16.082Z,100
2017-04-23T05:10:04.735Z,105
2017-04-23T05:10:53.100Z,105
2017-04-23T05:11:42.144Z,110
2017-04-23T05:12:27.135Z,110
2017-04-23T05:13:15.886Z,110
2017-04-23T05:14:04.505Z,110
2017-04-23T05:14:53.031Z,115
2017-04-23T05:15:41.647Z,115
2017-04-23T05:16:30.604Z,120
2017-04-23T05:17:19.126Z,120
2017-04-23T05:18:07.965Z,120
2017-04-23T05:18:56.864Z,125
2017-04-23T05:19:44.794Z,125
2017-04-23T05:20:32.409Z,130
2017-04-23T05:21:12.419Z,130
2017-04-23T05:21:52.857Z,135
2017-04-23T05:22:34.764Z,135
2017-04-23T05:23:15.184Z,140
2017-04-23T05:23:55.574Z,135
2017-04-23T05:24:36.748Z,140
2017-04-23T05:25:17.210Z,140
2017-04-23T05:25:58.350Z,145
2017-04-23T05:26:38.771Z,145
2017-04-23T05:27:20.045Z,145
2017-04-23T05:28:00.467Z,155
2017-04-23T05:28:40.877Z,155
2017-04-23T05:29:21.336Z,160
2017-04-23T05:30:04.276Z,165
2017-04-23T05:30:44.680Z,160
2017-04-23T05:31:25.097Z,170
2017-04-23T05:32:05.531Z,180
2017-04-23T05:32:46.842Z,185
2017-04-23T05:33:27.261Z,190
2017-04-23T05:34:07.628Z,195
2017-04-23T05:34:48.065Z,200
2017-04-23T05:35:28.494Z,205
2017-04-23T05:36:08.915Z,205
2017-04-23T05:36:50.068Z,210
2017-04-23T05:37:30.462Z,215
2017-04-23T05:38:11.439Z,215
2017-04-23T05:38:51.846Z,215
2017-04-23T05:39:32.944Z,215
2017-04-23T05:40:13.368Z,220
2017-04-23T05:40:53.746Z,230
2017-04-23T05:41:35.894Z,225
2017-04-23T05:42:16.281Z,230
2017-04-23T05:42:57.649Z,235
2017-04-23T05:43:40.779Z,235
2017-04-23T05:44:21.212Z,240
2017-04-23T05:45:01.604Z,240
2017-04-23T05:45:42.787Z,240
2017-04-23T05:46:23.245Z,240
2017-04-23T05:47:03.662Z,245
2017-04-23T05:47:45.042Z,250
2017-04-23T05:48:25.355Z,250
2017-04-23T05:49:06.567Z,255
2017-04-23T05:49:46.975Z,255
2017-04-23T05:50:27.353Z,260
2017-04-23T05:51:07.725Z,265
2017-04-23T05:51:48.824Z,265
2017-04-23T05:52:29.276Z,260
2017-04-23T05:53:09.691Z,245
2017-04-23T05:53:52.951Z,230
2017-04-23T05:54:33.341Z,225
2017-04-23T05:55:13.748Z,205
2017-04-23T05:55:54.132Z,215
2017-04-23T05:56:35.318Z,195
2017-04-23T05:57:15.675Z,190
2017-04-23T05:57:56.789Z,190
2017-04-23T05:58:37.812Z,200
2017-04-23T05:59:18.860Z,215
2017-04-23T05:59:59.815Z,220
2017-04-23T06:00:41.797Z,230
2017-04-23T06:01:22.184Z,240
2017-04-23T06:02:02.633Z,275
2017-04-23T06:04:24.737Z,275
2017-04-23T06:05:13.306Z,310
2017-04-23T06:06:02.190Z,260
2017-04-23T06:06:50.390Z,315
2017-04-23T06:07:38.872Z,365
2017-04-23T06:08:28.094Z,370
2017-04-23T06:09:16.103Z,355
2017-04-23T06:10:04.898Z,395
2017-04-23T06:10:53.235Z,405
2017-04-23T06:11:41.991Z,410
2017-04-23T06:12:30.509Z,420
2017-04-23T06:13:18.945Z,430
2017-04-23T06:14:07.597Z,445
2017-04-23T06:14:56.302Z,460
2017-04-23T06:15:36.048Z,470
2017-04-23T06:16:17.206Z,480
2017-04-23T06:16:59.265Z,480
2017-04-23T06:17:39.652Z,515
2017-04-23T06:18:20.899Z,545
2017-04-23T06:19:01.259Z,570
2017-04-23T06:19:41.646Z,580
2017-04-23T06:20:22.048Z,590
2017-04-23T06:21:02.431Z,595
2017-04-23T06:21:43.764Z,590
2017-04-23T06:22:24.206Z,585
2017-04-23T06:23:07.290Z,565
2017-04-23T06:23:49.238Z,565
2017-04-23T06:24:30.443Z,555
2017-04-23T06:25:14.471Z,560
2017-04-23T06:25:54.956Z,555
2017-04-23T06:26:35.411Z,540
2017-04-23T06:27:16.706Z,605
2017-04-23T06:27:58.124Z,630
2017-04-23T06:28:39.743Z,610
2017-04-23T06:29:21.900Z,525
2017-04-23T06:30:03.805Z,525
2017-04-23T06:30:44.826Z,510
2017-04-23T06:31:25.208Z,500
2017-04-23T06:32:05.606Z,495
2017-04-23T06:32:49.724Z,490
2017-04-23T06:33:30.077Z,480
2017-04-23T06:34:10.598Z,475
2017-04-23T06:34:51.045Z,480
2017-04-23T06:35:32.216Z,490
2017-04-23T06:36:13.445Z,530
2017-04-23T06:36:54.728Z,565
2017-04-23T06:37:36.775Z,570
2017-04-23T06:38:18.759Z,525
2017-04-23T06:39:00.010Z,485
2017-04-23T06:41:43.588Z,425
2017-04-23T06:42:23.634Z,415
2017-04-23T06:43:04.022Z,410
2017-04-23T06:43:45.300Z,420
2017-04-23T06:44:25.745Z,440
2017-04-23T06:46:48.072Z,440
2017-04-23T06:51:09.173Z,615
2017-04-23T06:53:48.875Z,680
2017-04-23T06:54:37.686Z,695
2017-04-23T06:55:26.238Z,695
2017-04-23T06:56:14.629Z,670
2017-04-23T06:57:01.972Z,670
2017-04-23T06:57:52.231Z,665
2017-04-23T06:58:38.706Z,670
2017-04-23T06:59:19.049Z,690
2017-04-23T06:59:59.504Z,715
2017-04-23T07:00:42.985Z,730
2017-04-23T07:01:23.946Z,745
2017-04-23T07:02:05.727Z,765
2017-04-23T07:02:47.119Z,775
2017-04-23T07:03:29.298Z,805
2017-04-23T07:04:10.175Z,820
2017-04-23T07:06:36.430Z,815
2017-04-23T07:07:20.300Z,840
2017-04-23T07:08:00.788Z,860
2017-04-23T07:08:41.369Z,900
2017-04-23T07:09:21.868Z,945
2017-04-23T07:10:04.014Z,875
2017-04-23T07:10:45.322Z,885
2017-04-23T07:11:25.694Z,885
2017-04-23T07:12:06.157Z,905
2017-04-23T07:12:47.767Z,905
2017-04-23T07:13:31.345Z,915
2017-04-23T07:14:11.676Z,950
2017-04-23T07:14:52.771Z,960
2017-04-23T07:15:33.476Z,940
2017-04-23T07:16:14.166Z,870
2017-04-23T07:16:54.388Z,725
2017-04-23T07:17:34.761Z,665
2017-04-23T07:18:17.749Z,670
2017-04-23T07:18:58.112Z,605
2017-04-23T07:19:40.238Z,560
2017-04-23T07:20:22.314Z,550
2017-04-23T07:21:03.528Z,580
2017-04-23T07:21:43.843Z,585
2017-04-23T07:22:24.241Z,510
2017-04-23T07:23:05.305Z,445
2017-04-23T07:23:47.714Z,400
2017-04-23T07:24:28.270Z,400
2017-04-23T07:25:08.755Z,390
2017-04-23T07:25:49.141Z,375
2017-04-23T07:26:30.489Z,400
2017-04-23T07:27:10.901Z,440
2017-04-23T07:27:51.361Z,455
2017-04-23T07:28:32.584Z,430
2017-04-23T07:29:14.300Z,425
2017-04-23T07:29:59.665Z,440
2017-04-23T07:30:42.380Z,495
2017-04-23T07:31:23.011Z,630
2017-04-23T07:32:03.890Z,1040
2017-04-23T07:32:45.218Z,880
2017-04-23T07:33:25.605Z,890
2017-04-23T07:34:06.073Z,2120
2017-04-23T07:34:46.595Z,1230
2017-04-23T07:35:27.095Z,905
2017-04-23T07:36:09.849Z,810
2017-04-23T07:36:50.399Z,730
2017-04-23T07:37:30.803Z,660
2017-04-23T07:38:11.667Z,625
2017-04-23T07:38:52.362Z,595
2017-04-23T07:39:32.814Z,605
2017-04-23T07:40:13.249Z,695
2017-04-23T07:40:53.642Z,1030
2017-04-23T07:41:34.121Z,760
2017-04-23T07:42:14.558Z,785
2017-04-23T07:42:56.750Z,810
2017-04-23T07:43:37.174Z,840
2017-04-23T07:44:21.122Z,955
2017-04-23T07:45:01.461Z,985
2017-04-23T07:45:41.900Z,890
2017-04-23T07:46:22.308Z,855
2017-04-23T07:47:03.525Z,945
2017-04-23T07:47:43.898Z,940
2017-04-23T07:48:24.628Z,800
2017-04-23T07:50:46.351Z,845
2017-04-23T07:51:34.676Z,830
2017-04-23T07:52:16.420Z,760
2017-04-23T07:52:56.760Z,680
2017-04-23T07:53:37.834Z,615
2017-04-23T07:54:18.648Z,620
2017-04-23T07:54:59.054Z,685
2017-04-23T07:55:40.440Z,1490
2017-04-23T07:56:20.834Z,710
2017-04-23T07:57:02.085Z,715
2017-04-23T07:57:42.513Z,730
2017-04-23T07:58:23.602Z,730
2017-04-23T07:59:04.016Z,720
2017-04-23T07:59:47.140Z,690
2017-04-23T08:00:29.015Z,665
2017-04-23T08:01:09.632Z,645
2017-04-23T08:01:50.559Z,635
2017-04-23T08:02:31.791Z,610
2017-04-23T08:03:19.386Z,570
2017-04-23T08:04:05.932Z,525
2017-04-23T08:04:54.037Z,495
2017-04-23T08:05:34.433Z,490
2017-04-23T08:06:17.788Z,480
2017-04-23T08:06:58.307Z,470
2017-04-23T08:07:38.736Z,465
2017-04-23T08:08:20.867Z,445
2017-04-23T08:09:05.481Z,415
2017-04-23T08:09:45.942Z,385
2017-04-23T08:10:30.764Z,360
2017-04-23T08:11:13.916Z,350
2017-04-23T08:11:57.139Z,335
2017-04-23T08:12:39.379Z,315
2017-04-23T08:13:20.743Z,295
2017-04-23T08:14:05.792Z,270
2017-04-23T08:14:49.795Z,270
2017-04-23T08:15:32.152Z,295
2017-04-23T08:16:12.904Z,335
2017-04-23T08:16:53.100Z,380
2017-04-23T08:17:33.474Z,415
2017-04-23T08:18:16.554Z,425
2017-04-23T08:18:58.785Z,420
2017-04-23T08:19:42.199Z,410
2017-04-23T08:20:25.370Z,400
2017-04-23T08:21:06.912Z,405
2017-04-23T08:21:52.825Z,435
2017-04-23T08:22:33.209Z,485
2017-04-23T08:23:17.839Z,530
2017-04-23T08:23:58.464Z,585
2017-04-23T08:24:42.502Z,625
2017-04-23T08:25:25.789Z,665
2017-04-23T08:26:07.979Z,710
2017-04-23T08:26:50.095Z,750
2017-04-23T08:27:30.484Z,785
2017-04-23T08:28:16.811Z,835
2017-04-23T08:28:57.214Z,930
2017-04-23T08:29:37.689Z,1020
2017-04-23T08:30:28.901Z,1300
2017-04-23T08:31:09.363Z,1135
2017-04-23T08:31:49.735Z,1055
2017-04-23T08:32:30.191Z,1040
2017-04-23T08:33:13.633Z,1030
2017-04-23T08:33:55.769Z,1010
2017-04-23T08:34:38.251Z,970
2017-04-23T08:35:18.646Z,940
2017-04-23T08:36:01.983Z,890
2017-04-23T08:36:46.062Z,870
2017-04-23T08:37:30.871Z,855
2017-04-23T08:38:12.820Z,805
2017-04-23T08:38:54.982Z,730
2017-04-23T08:39:35.385Z,685
2017-04-23T08:40:15.814Z,645
2017-04-23T08:40:58.850Z,605
2017-04-23T08:41:39.213Z,560
2017-04-23T08:42:23.352Z,525
2017-04-23T08:43:03.770Z,495
2017-04-23T08:43:46.066Z,460
2017-04-23T08:44:28.095Z,430
2017-04-23T08:45:08.690Z,405
2017-04-23T08:45:49.150Z,380
2017-04-23T08:46:29.606Z,375
2017-04-23T08:47:11.734Z,380
2017-04-23T08:48:02.300Z,385
2017-04-23T08:48:42.716Z,385
2017-04-23T08:49:30.421Z,365
2017-04-23T08:50:12.742Z,345
2017-04-23T08:50:56.089Z,330
2017-04-23T08:51:38.394Z,300
2017-04-23T08:52:23.024Z,285
2017-04-23T08:53:03.415Z,280
2017-04-23T08:53:44.119Z,280
2017-04-23T08:54:26.942Z,295
2017-04-23T08:55:09.160Z,320
2017-04-23T08:55:54.325Z,360
2017-04-23T08:56:37.512Z,395
2017-04-23T08:57:19.791Z,445
2017-04-23T08:58:02.073Z,500
2017-04-23T08:58:47.378Z,595
2017-04-23T09:01:38.364Z,805
2017-04-23T09:02:27.960Z,810
2017-04-23T09:03:17.404Z,795
2017-04-23T09:04:05.976Z,785
2017-04-23T09:04:54.124Z,760
2017-04-23T09:05:43.985Z,710
2017-04-23T09:06:31.499Z,665
2017-04-23T09:07:15.226Z,660
2017-04-23T09:07:55.675Z,640
2017-04-23T09:08:37.271Z,615
2017-04-23T09:09:17.479Z,585
2017-04-23T09:09:58.768Z,555
2017-04-23T09:10:39.265Z,530
2017-04-23T09:11:21.115Z,520
2017-04-23T09:12:02.306Z,515
2017-04-23T09:12:42.706Z,510
2017-04-23T09:13:27.692Z,475
2017-04-23T09:14:08.430Z,435
2017-04-23T09:14:50.608Z,420
2017-04-23T09:15:33.509Z,420
2017-04-23T09:16:16.593Z,425
2017-04-23T09:16:57.111Z,430
2017-04-23T09:17:39.838Z,430
2017-04-23T09:18:21.359Z,410
2017-04-23T09:19:05.350Z,375
2017-04-23T09:19:48.131Z,355
2017-04-23T09:20:32.269Z,340
2017-04-23T09:21:18.443Z,320
2017-04-23T09:22:00.569Z,305
2017-04-23T09:22:44.005Z,305
2017-04-23T09:23:25.175Z,315
2017-04-23T09:24:09.132Z,315
2017-04-23T09:24:51.324Z,310
2017-04-23T09:25:33.239Z,285
2017-04-23T09:26:13.649Z,255
2017-04-23T09:26:59.021Z,240
2017-04-23T09:27:40.708Z,230
2017-04-23T09:28:24.704Z,225
2017-04-23T09:29:07.092Z,220
2017-04-23T09:29:47.822Z,215
2017-04-23T09:30:28.260Z,215
2017-04-23T09:31:10.318Z,215
2017-04-23T09:31:50.773Z,220
2017-04-23T09:32:32.587Z,230
2017-04-23T09:33:12.303Z,245
2017-04-23T09:33:53.549Z,265
2017-04-23T09:34:33.951Z,275
2017-04-23T09:35:14.926Z,290
2017-04-23T09:35:57.131Z,305
2017-04-23T09:36:43.597Z,320
2017-04-23T09:37:23.982Z,335
2017-04-23T09:38:04.508Z,345
2017-04-23T09:38:44.888Z,365
2017-04-23T09:39:25.262Z,385
2017-04-23T09:40:06.610Z,400
2017-04-23T09:40:47.758Z,420
2017-04-23T09:41:28.021Z,430
2017-04-23T09:44:10.421Z,480
2017-04-23T09:44:58.811Z,505
2017-04-23T09:45:47.287Z,540
2017-04-23T09:46:35.931Z,565
2017-04-23T09:47:24.374Z,590
2017-04-23T09:48:06.722Z,615
2017-04-23T09:48:48.425Z,645
2017-04-23T09:49:29.293Z,665
2017-04-23T09:50:09.646Z,690
2017-04-23T09:50:53.597Z,700
2017-04-23T09:51:33.975Z,700
2017-04-23T09:52:14.417Z,710
2017-04-23T09:52:55.643Z,720
2017-04-23T09:55:24.700Z,745
2017-04-23T09:56:05.220Z,770
2017-04-23T09:56:46.833Z,770
2017-04-23T09:57:27.547Z,775
2017-04-23T09:58:08.639Z,775
2017-04-23T09:58:50.963Z,775
2017-04-23T09:59:31.362Z,765
2017-04-23T10:00:11.725Z,750
2017-04-23T10:00:52.076Z,725
2017-04-23T10:01:33.122Z,705
2017-04-23T10:02:14.090Z,705
2017-04-23T10:02:55.455Z,730
2017-04-23T10:03:35.911Z,745
2017-04-23T10:04:16.363Z,760
2017-04-23T10:04:59.315Z,745
2017-04-23T10:05:40.379Z,715
2017-04-23T10:06:20.772Z,670
2017-04-23T10:07:01.801Z,645
2017-04-23T10:07:44.136Z,610
2017-04-23T10:08:24.515Z,585
2017-04-23T10:09:04.910Z,570
2017-04-23T10:09:45.384Z,555
2017-04-23T10:10:26.289Z,545
2017-04-23T10:11:07.306Z,520
2017-04-23T10:11:50.595Z,490
2017-04-23T10:12:31.058Z,460
2017-04-23T10:13:11.507Z,425
2017-04-23T10:13:51.956Z,385
2017-04-23T10:14:32.353Z,345
2017-04-23T10:15:12.723Z,315
2017-04-23T10:15:53.163Z,285
2017-04-23T10:16:33.565Z,255
2017-04-23T10:17:14.445Z,230
2017-04-23T10:17:54.860Z,205
2017-04-23T10:18:35.197Z,185
2017-04-23T10:19:15.630Z,170
2017-04-23T10:19:56.038Z,160
2017-04-23T10:20:36.483Z,155
2017-04-23T10:21:16.843Z,155
2017-04-23T10:21:57.236Z,155
2017-04-23T10:24:40.259Z,200
2017-04-23T10:25:29.182Z,215
2017-04-23T10:26:17.543Z,225
2017-04-23T10:27:04.648Z,225
2017-04-23T10:29:47.931Z,225
2017-04-23T10:30:31.230Z,230
2017-04-23T10:31:13.257Z,235
2017-04-23T10:31:53.897Z,235
2017-04-23T10:34:31.504Z,255
2017-04-23T10:35:19.998Z,270
2017-04-23T10:36:08.764Z,285
2017-04-23T10:36:57.808Z,305
2017-04-23T10:37:46.057Z,325
2017-04-23T10:38:34.765Z,350
2017-04-23T10:39:20.940Z,380
2017-04-23T10:40:01.336Z,405
2017-04-23T10:40:41.747Z,440
2017-04-23T10:41:22.179Z,475
2017-04-23T10:42:02.593Z,500
2017-04-23T10:42:43.000Z,525
2017-04-23T10:43:23.451Z,555
2017-04-23T10:44:03.807Z,570
2017-04-23T10:44:44.217Z,610
2017-04-23T10:45:24.662Z,660
2017-04-23T10:46:05.008Z,705
2017-04-23T10:46:45.440Z,740
2017-04-23T10:47:25.869Z,760